Hualapai Flat, Nevada Weather observations

Data are for 10 minute period ending at time listed.
 Day   Time   Solar   Ave.   Ave.  Ave.  Vector  Max.   Baro.   Total    
  of    of     Rad.   Air    Rel.  Wind   Wind   Wind  Press.  Precip.   
Year   Day            Temp.  Hum.  Speed  Dir.   Gust                    
2014   (PST)  Kw/m2    F      %     mph   deg.    mph    mb.     in.     
-------------------------------------------------------------------------
 243   18:30   0.01   73.0    27    7.5   323    10.1   873.1    0.00 
 243   18:40   0.00   71.5    27    7.4   324    10.6   873.3    0.00 
 243   18:50   0.00   71.2    26    7.4   325    11.8   873.4    0.00 
 243   19:00   0.00   70.1    28    7.0   328     9.6   873.6    0.00 
 243   19:10   0.00   68.7    29    7.3   336    10.2   873.8    0.00 
 243   19:20   0.00   68.4    29    7.2   331    11.5   873.9    0.00 
 243   19:30   0.00   68.3    28    7.9   325    10.7   874.1    0.00 
 243   19:40   0.00   69.4    26    8.8   323    12.3   874.2    0.00 
 243   19:50   0.00   69.9    25    9.2   323    12.3   874.3    0.00 
 243   20:00   0.00   69.1    26    9.9   325    18.1   874.4    0.00 
 243   20:10   0.00   70.3    24   10.9   322    16.1   874.4    0.00 
 243   20:20   0.00   69.8    25   10.5   324    13.9   874.5    0.00 
 243   20:30   0.00   69.0    25    9.7   324    13.9   874.6    0.00 
 243   20:40   0.00   68.5    26    8.9   321    13.5   874.6    0.00 
 243   20:50   0.00   68.8    25    8.9   319    15.2   874.6    0.00 
 243   21:00   0.00   69.3    24    9.0   322    13.9   874.7    0.00 
 243   21:10   0.00   68.5    25    8.2   325    12.6   874.8    0.00 
 243   21:20   0.00   67.9    26    7.3   322     9.9   874.8    0.00 
 243   21:30   0.00   67.7    26    7.4   323    11.2   874.8    0.00 
 243   21:40   0.00   67.6    26    7.3   323    11.8   874.9    0.00 
 243   21:50   0.00   68.3    25    8.0   317    12.6   875.0    0.00 
 243   22:00   0.00   68.4    25    8.0   319    11.5   875.1    0.00 
 243   22:10   0.00   68.2    25    7.8   315    11.9   875.2    0.00 
 243   22:20   0.00   68.0    25    8.7   312    11.9   875.3    0.00 
 243   22:30   0.00   67.5    26    8.1   309    12.2   875.4    0.00 
 243   22:40   0.00   66.1    27    8.0   308    10.4   875.4    0.00 
 243   22:50   0.00   65.3    28    7.6   309     9.5   875.5    0.00 
 243   23:00   0.00   64.5    31    3.5    20     8.5   875.7    0.00 
 243   23:10   0.00   61.7    37    3.6    58     5.3   875.8    0.00 
 243   23:20   0.00   62.5    34    4.4    60     9.8   876.0    0.00 
 243   23:30   0.00   64.3    32    4.2   356     9.9   876.1    0.00 
 243   23:40   0.00   65.0    30    4.3   317     8.0   876.0    0.00 
 243   23:50   0.00   63.8    28    4.6   297     7.3   876.0    0.00 
 244    0:00   0.00   63.7    29    3.9   288     6.4   876.1    0.00 
 244    0:10   0.00   62.1    34    2.4     1     4.1   876.1    0.00 
 244    0:20   0.00   60.2    36    1.2   168     4.7   876.1    0.00 
 244    0:30   0.00   60.7    31    5.0   268     7.8   876.1    0.00 
 244    0:40   0.00   59.8    33    6.5   292    11.0   876.0    0.00 
 244    0:50   0.00   60.9    32    8.6   312    14.3   876.0    0.00 
 244    1:00   0.00   62.2    31    8.7   318    12.7   876.0    0.00 
 244    1:10   0.00   61.4    32    8.2   323    13.7   876.0    0.00 
 244    1:20   0.00   62.2    30    8.1   318    13.2   876.1    0.00 
 244    1:30   0.00   62.2    30    8.1   326    13.7   876.2    0.00 
 244    1:40   0.00   61.3    31    7.9   334    12.3   876.2    0.00 
 244    1:50   0.00   60.0    34    5.4   334     8.8   876.4    0.00 
 244    2:00   0.00   59.0    34    6.2   332     9.4   876.4    0.00 
 244    2:10   0.00   58.9    34    7.0   336    10.2   876.4    0.00 
 244    2:20   0.00   58.7    34    6.8   334     9.6   876.5    0.00 
 244    2:30   0.00   58.4    36    4.7   358     8.7   876.5    0.00 
 244    2:40   0.00   56.8    39    5.2     1     7.8   876.4    0.00 
 244    2:50   0.00   57.1    36    6.9   337     9.9   876.3    0.00 
 244    3:00   0.00   58.5    34    6.5   321    11.8   876.2    0.00 
 244    3:10   0.00   57.3    35    5.1   300     7.5   876.3    0.00 
 244    3:20   0.00   56.5    35    5.8   304     7.8   876.2    0.00 
 244    3:30   0.00   57.4    34    4.8   330     6.1   876.3    0.00 
 244    3:40   0.00   57.8    36    4.6   337     6.1   876.4    0.00 
 244    3:50   0.00   54.6    43    7.0   333     9.3   876.3    0.00 
 244    4:00   0.00   55.1    41    7.5   328     8.6   876.3    0.00 
 244    4:10   0.00   55.4    40    5.8   322     8.0   876.3    0.00 
 244    4:20   0.00   53.9    45    3.4   211     5.8   876.4    0.00 
 244    4:30   0.00   50.3    50    3.2   251     5.2   876.4    0.00 
 244    4:40   0.00   50.2    48    4.7   229     6.4   876.5    0.00 
 244    4:50   0.00   50.6    48    4.0   221     4.7   876.6    0.00 
 244    5:00   0.00   51.0    47    4.2   226     4.9   876.6    0.00 
 244    5:10   0.00   50.8    50    5.4   209     6.8   876.6    0.00 
 244    5:20   0.00   49.9    51    4.1   213     6.9   876.7    0.00 
 244    5:30   0.01   51.6    43    3.8   233     6.4   876.7    0.00 
 244    5:40   0.02   51.5    47    5.4   235     6.9   876.9    0.00 
 244    5:50   0.04   52.6    46    4.0   231     5.6   877.1    0.00 
 244    6:00   0.06   52.7    45    4.1   262     6.1   877.3    0.00 
 244    6:10   0.09   52.8    43    4.2   293     5.5   877.3    0.00 
 244    6:20   0.11   53.0    47    4.3   313     6.2   877.4    0.00 
 244    6:30   0.14   53.2    51    4.8   333     5.8   877.5    0.00 
 244    6:40   0.17   53.2    54    4.2   327     5.7   877.5    0.00 
 244    6:50   0.21   55.6    58    2.4     5     3.9   877.7    0.00 
 244    7:00   0.24   57.6    54    1.6    52     2.7   877.9    0.00 
 244    7:10   0.27   59.0    51    1.0    39     2.3   877.9    0.00 
 244    7:20   0.30   59.8    52    1.3   352     2.3   877.9    0.00 
 244    7:30   0.34   60.3    52    2.0   325     4.0   878.0    0.00 
 244    7:40   0.38   61.6    38    2.2    18     3.7   878.0    0.00 
 244    7:50   0.41   62.7    38    2.2    62     3.3   878.1    0.00 
 244    8:00   0.44   62.5    39    2.7    98     4.1   878.2    0.00 
 244    8:10   0.47   63.2    37    1.5   116     2.9   878.2    0.00 
 244    8:20   0.50   64.8    32    1.5   118     3.2   878.1    0.00 
 244    8:30   0.53   66.2    32    1.9   142     3.6   878.1    0.00 
 244    8:40   0.56   67.7    31    2.8   145     4.5   878.2    0.00 
 244    8:50   0.59   68.9    29    2.9   161     4.6   878.2    0.00 
 244    9:00   0.61   70.5    27    2.3   152     4.0   878.2    0.00 
 244    9:10   0.64   73.1    25    2.4   184     3.8   878.0    0.00 
 244    9:20   0.66   74.4    24    2.5   165     5.4   878.0    0.00 
 244    9:30   0.69   71.9    25    4.0   126     7.3   877.9    0.00 
 244    9:40   0.71   72.0    24    2.2   169     4.7   877.9    0.00 
 244    9:50   0.73   72.8    24    3.2   111     6.1   877.9    0.00 
 244   10:00   0.75   73.2    25    2.9   132     5.6   877.8    0.00 
 244   10:10   0.77   72.8    25    2.6    97     5.9   877.8    0.00 
 244   10:20   0.78   73.2    27    2.0   328     7.4   877.7    0.00 
 244   10:30   0.79   73.4    23    1.8    96     5.1   877.5    0.00 
 244   10:40   0.81   76.2    23    1.9   172     3.7   877.3    0.00 
 244   10:50   0.82   78.4    23    2.8   216     5.3   877.2    0.00 
 244   11:00   0.83   76.7    23    2.7   130     7.1   877.2    0.00 
 244   11:10   0.84   75.6    21    2.0    60     4.7   877.1    0.00 
 244   11:20   0.85   75.9    27    1.9   315     3.2   876.9    0.00 
 244   11:30   0.85   75.8    27    2.1   298     3.5   876.8    0.00 
 244   11:40   0.86   76.2    23    2.8    68     6.5   876.7    0.00 
 244   11:50   0.86   77.4    21    1.6     7     3.3   876.5    0.00 
 244   12:00   0.86   78.3    23    1.3   273     4.0   876.4    0.00 
 244   12:10   0.86   80.7    21    2.3   236     5.0   876.3    0.00 
 244   12:20   0.85   79.2    22    1.7   274     5.0   876.2    0.00 
 244   12:30   0.85   78.2    25    2.8   296     4.8   876.1    0.00 
 244   12:40   0.84   77.4    25    2.6   330     5.8   876.1    0.00 
 244   12:50   0.83   78.6    27    2.1   352     4.8   876.0    0.00 
 244   13:00   0.82   78.0    27    3.2   345     8.2   875.8    0.00 
 244   13:10   0.81   79.6    19    2.8   120     5.8   875.7    0.00 
 244   13:20   0.80   82.3    19    2.4   166     5.5   875.6    0.00 
 244   13:30   0.78   82.6    17    1.8   146     7.2   875.5    0.00 
 244   13:40   0.77   82.3    18    2.9   111     6.7   875.4    0.00 
 244   13:50   0.75   80.7    18    2.7   113     5.6   875.2    0.00 
 244   14:00   0.73   81.0    18    1.9   108     5.8   875.1    0.00 
 244   14:10   0.71   83.9    17    1.4   192     4.6   875.0    0.00 
 244   14:20   0.69   83.0    17    2.2   106     5.9   874.8    0.00 
 244   14:30   0.67   82.9    20    3.4   128     6.2   874.8    0.00 
 244   14:40   0.64   81.8    21    3.4   102     8.8   874.8    0.00 
 244   14:50   0.62   83.0    24    3.6   177     7.2   874.7    0.00 
 244   15:00   0.60   85.0    20    2.0   167     3.9   874.6    0.00 
 244   15:10   0.57   83.6    21    3.1   129     6.2   874.5    0.00 
 244   15:20   0.54   82.4    21    3.7   129     7.9   874.4    0.00 
 244   15:30   0.51   83.9    19    2.0   180     3.9   874.4    0.00 
 244   15:40   0.48   87.5    20    1.7   199     2.8   874.3    0.00 
 244   15:50   0.45   87.2    19    2.2   160     4.4   874.2    0.00 
 244   16:00   0.43   84.5    22    4.1   157     6.3   874.1    0.00 
 244   16:10   0.39   82.0    26    3.4   146     6.8   874.0    0.00 
 244   16:20   0.35   83.7    25    2.9   174     4.7   873.8    0.00 
 244   16:30   0.32   85.1    29    2.8   189     4.0   873.8    0.00 
 244   16:40   0.29   84.4    29    3.0   182     6.0   873.7    0.00 
 244   16:50   0.25   83.9    34    2.9   170     4.5   873.7    0.00 
 244   17:00   0.19   82.3    34    3.0   148     4.7   873.6    0.00 
 244   17:10   0.19   80.1    34    3.2   159     4.6   873.6    0.00 
 244   17:20   0.16   78.7    34    3.8   127     4.8   873.5    0.00 
 244   17:30   0.13   76.4    32    5.0   129     7.5   873.4    0.00 
 244   17:40   0.10   75.3    31    5.4   109     7.7   873.4    0.00 
 244   17:50   0.08   73.8    30    6.0   102     8.3   873.4    0.00 
 244   18:00   0.06   73.4    31    5.2    96     7.1   873.4    0.00 
 244   18:10   0.03   72.5    30    5.2    99     6.5   873.5    0.00 
 244   18:20   0.01   72.6    29    4.6    90     5.6   873.6    0.00 

Return to Hualapai Flat graphs page.


Western Regional Climate Center,wrcc@dri.edu